Time;durP1;ratioP1;P1;durP2;ratioP2;P2;SDS_P1;SDS_P2;PMS_P1;PMS_P2;Temp;Humidity;BMP_temperature;BMP_pressure;BME280_temperature;BME280_humidity;BME280_pressure;Samples;Min_cycle;Max_cycle;Signal;HPM_P1;HPM_P2
2021/04/05 00:01:31;;;;;;;11.77;6.38;;;1.00;80.10;;;;;;4768684;30;20048;-76
2021/04/05 00:04:00;;;;;;;6.60;5.15;;;0.90;80.30;;;;;;4768250;30;20059;-76
2021/04/05 00:06:27;;;;;;;7.07;6.40;;;0.80;81.00;;;;;;4759153;30;20732;-77
2021/04/05 00:08:55;;;;;;;7.93;5.57;;;0.70;81.40;;;;;;4767099;29;20071;-76
2021/04/05 00:11:23;;;;;;;7.85;5.72;;;0.70;81.80;;;;;;4766366;30;20411;-76
2021/04/05 00:13:51;;;;;;;6.80;5.57;;;0.70;81.80;;;;;;4768178;30;20392;-77
2021/04/05 00:16:21;;;;;;;6.78;5.43;;;0.60;82.00;;;;;;4767529;30;20058;-76
2021/04/05 00:18:49;;;;;;;7.15;6.15;;;0.60;81.90;;;;;;4767913;29;20398;-77
2021/04/05 00:21:21;;;;;;;7.10;5.10;;;0.70;81.70;;;;;;4755658;30;20061;-77
2021/04/05 00:23:52;;;;;;;5.10;4.45;;;0.80;81.10;;;;;;4767717;30;20063;-77
2021/04/05 00:26:20;;;;;;;8.10;6.25;;;0.80;81.10;;;;;;4767463;30;20043;-77
2021/04/05 00:28:49;;;;;;;7.32;5.68;;;0.70;81.20;;;;;;4768562;30;20413;-76
2021/04/05 00:31:18;;;;;;;5.65;5.15;;;0.60;81.60;;;;;;4767900;30;20059;-77
2021/04/05 00:33:45;;;;;;;10.15;5.13;;;0.50;82.20;;;;;;4768466;29;20048;-77
2021/04/05 00:36:16;;;;;;;6.82;4.82;;;0.50;82.40;;;;;;4767085;30;20055;-77
2021/04/05 00:38:43;;;;;;;7.43;5.22;;;0.50;82.40;;;;;;4758972;29;20073;-76
2021/04/05 00:41:14;;;;;;;8.15;6.47;;;0.50;82.30;;;;;;4761625;30;20070;-77
2021/04/05 00:43:46;;;;;;;6.53;5.90;;;0.40;82.90;;;;;;4748788;30;20406;-76
2021/04/05 00:46:22;;;;;;;6.18;5.68;;;0.50;82.60;;;;;;4749093;30;20052;-76
2021/04/05 00:48:50;;;;;;;5.80;4.78;;;0.50;82.40;;;;;;4750493;30;20060;-76
2021/04/05 00:51:26;;;;;;;8.60;5.03;;;0.50;82.10;;;;;;4758986;30;20055;-76
2021/04/05 00:53:55;;;;;;;9.02;5.43;;;0.60;81.70;;;;;;4765598;30;20048;-76
2021/04/05 00:56:26;;;;;;;4.43;4.03;;;0.60;81.30;;;;;;4764075;30;20055;-76
2021/04/05 00:58:54;;;;;;;11.93;5.20;;;0.60;81.40;;;;;;4766927;30;20052;-76
2021/04/05 01:01:25;;;;;;;6.28;4.85;;;0.60;81.80;;;;;;4767772;30;20639;-76
2021/04/05 01:03:54;;;;;;;6.78;6.07;;;0.50;81.60;;;;;;4767182;30;20556;-76
2021/04/05 01:06:25;;;;;;;5.20;4.63;;;0.50;82.00;;;;;;4766592;30;20048;-76
2021/04/05 01:08:53;;;;;;;6.70;4.07;;;0.50;82.40;;;;;;4766194;30;20055;-76
2021/04/05 01:11:24;;;;;;;8.07;3.58;;;0.40;82.80;;;;;;4767218;30;20058;-76
2021/04/05 01:13:52;;;;;;;8.00;6.40;;;0.40;82.60;;;;;;4767135;30;20067;-76
2021/04/05 01:16:27;;;;;;;8.07;5.05;;;0.50;82.20;;;;;;4767472;30;20055;-76
2021/04/05 01:18:56;;;;;;;8.68;4.88;;;0.50;81.90;;;;;;4763136;30;20455;-76
2021/04/05 01:21:24;;;;;;;5.05;4.60;;;0.60;81.60;;;;;;4766924;30;20048;-76
2021/04/05 01:23:52;;;;;;;5.47;4.68;;;0.50;81.20;;;;;;4767402;30;20075;-76
2021/04/05 01:26:21;;;;;;;5.22;4.75;;;0.30;81.70;;;;;;4766610;29;20056;-76
2021/04/05 01:28:49;;;;;;;6.15;5.45;;;0.00;83.70;;;;;;4767387;30;20052;-76
2021/04/05 01:31:16;;;;;;;4.65;3.53;;;0.00;84.30;;;;;;4765189;30;20052;-76
2021/04/05 01:34:13;;;;;;;4.18;3.78;;;0.10;84.50;;;;;;4766595;29;20055;-76
2021/04/05 01:37:51;;;;;;;7.80;4.40;;;0.10;83.90;;;;;;4732998;30;20379;-76
2021/04/05 01:41:49;;;;;;;8.23;4.55;;;0.20;83.70;;;;;;4712491;30;20061;-76
2021/04/05 01:44:50;;;;;;;4.50;4.05;;;0.10;84.60;;;;;;4713720;30;20048;-76
2021/04/05 01:53:17;;;;;;;7.63;6.22;;;0.20;83.80;;;;;;4777222;29;20052;-76
2021/04/05 02:03:08;;;;;;;7.22;4.25;;;0.70;81.00;;;;;;4787513;29;20058;-76
2021/04/05 02:06:54;;;;;;;8.85;6.35;;;0.60;81.70;;;;;;4715046;30;20041;-76
2021/04/05 02:21:02;;;;;;;3.90;3.53;;;0.30;83.40;;;;;;4758645;29;20044;-76
2021/04/05 02:24:44;;;;;;;4.03;3.72;;;0.30;83.40;;;;;;4776380;29;20039;-76
2021/04/05 02:27:11;;;;;;;4.00;3.15;;;0.10;84.30;;;;;;4787509;29;20460;-76
2021/04/05 02:29:39;;;;;;;3.92;3.33;;;0.10;84.70;;;;;;4788077;29;20062;-76
2021/04/05 02:32:06;;;;;;;5.75;4.00;;;0.00;84.90;;;;;;4788495;30;20055;-76
2021/04/05 02:34:34;;;;;;;4.82;4.43;;;0.00;84.90;;;;;;4771389;30;20066;-76
2021/04/05 02:37:02;;;;;;;10.07;4.20;;;-0.10;84.60;;;;;;4787461;29;20091;-76
2021/04/05 02:39:29;;;;;;;4.97;4.45;;;0.10;84.70;;;;;;4788137;29;20490;-76
2021/04/05 02:41:57;;;;;;;5.85;4.22;;;0.00;85.10;;;;;;4787089;29;20058;-76
2021/04/05 02:44:25;;;;;;;4.90;4.50;;;0.00;84.90;;;;;;4770501;30;20063;-76
2021/04/05 02:46:53;;;;;;;4.07;3.60;;;0.00;85.40;;;;;;4786221;29;20062;-76
2021/04/05 02:49:21;;;;;;;6.32;3.80;;;-0.10;86.20;;;;;;4787859;30;20067;-76
2021/04/05 02:51:50;;;;;;;4.82;4.40;;;-0.20;86.90;;;;;;4787723;30;20856;-76
2021/04/05 02:54:23;;;;;;;4.97;4.15;;;-0.20;86.10;;;;;;4786221;29;20047;-76
2021/04/05 02:56:58;;;;;;;5.85;4.60;;;-0.20;86.50;;;;;;4786423;30;20055;-76
2021/04/05 02:59:25;;;;;;;8.00;4.97;;;-0.30;86.40;;;;;;4787296;30;20568;-76
2021/04/05 03:01:54;;;;;;;4.97;3.95;;;-0.30;86.30;;;;;;4786989;29;20497;-76
2021/04/05 03:04:22;;;;;;;7.43;4.72;;;-0.20;86.20;;;;;;4786517;29;20063;-76
2021/04/05 03:06:50;;;;;;;4.38;3.97;;;-0.10;86.00;;;;;;4770446;30;20052;-76
2021/04/05 03:09:18;;;;;;;7.60;5.80;;;-0.10;85.70;;;;;;4786425;29;20059;-76
2021/04/05 03:11:49;;;;;;;5.25;4.75;;;-0.10;86.00;;;;;;4786736;30;20059;-76
2021/04/05 03:14:17;;;;;;;6.70;5.72;;;-0.10;86.10;;;;;;4787069;30;20043;-76
2021/04/05 03:16:47;;;;;;;5.65;4.35;;;-0.10;86.10;;;;;;4787567;29;20051;-76
2021/04/05 03:19:21;;;;;;;6.95;4.60;;;-0.10;86.30;;;;;;4787066;29;20500;-76
2021/04/05 03:21:49;;;;;;;13.18;5.53;;;-0.10;86.50;;;;;;4786568;29;20055;-76
2021/04/05 03:24:18;;;;;;;4.80;4.13;;;-0.10;86.80;;;;;;4787012;30;20066;-76
2021/04/05 03:26:47;;;;;;;6.20;4.47;;;-0.30;87.10;;;;;;4786203;29;20059;-76
2021/04/05 03:29:15;;;;;;;4.85;4.38;;;-0.40;87.10;;;;;;4787048;30;20055;-76
2021/04/05 03:31:45;;;;;;;4.03;3.72;;;-0.30;87.10;;;;;;4786200;29;20055;-76
2021/04/05 03:34:18;;;;;;;8.88;5.15;;;-0.50;87.50;;;;;;4785758;29;20058;-77
2021/04/05 03:36:49;;;;;;;7.88;3.85;;;-0.40;87.90;;;;;;4786827;30;20071;-76
2021/04/05 03:39:17;;;;;;;5.85;4.53;;;-0.40;87.50;;;;;;4786723;29;20054;-76
2021/04/05 03:42:25;;;;;;;5.25;4.75;;;-0.30;87.30;;;;;;4785707;29;20441;-76
2021/04/05 03:45:04;;;;;;;3.20;2.75;;;-0.20;87.00;;;;;;4786347;29;20067;-77
2021/04/05 03:47:56;;;;;;;4.97;4.38;;;-0.20;87.10;;;;;;4771219;30;20055;-76
2021/04/05 03:51:00;;;;;;;11.05;5.57;;;-0.20;87.10;;;;;;4786165;29;20062;-76
2021/04/05 03:54:02;;;;;;;7.25;4.68;;;-0.10;86.80;;;;;;4786353;29;20054;-76
2021/04/05 03:56:52;;;;;;;3.30;3.05;;;-0.10;86.30;;;;;;4782083;30;20118;-76
2021/04/05 03:59:26;;;;;;;4.55;4.15;;;0.00;85.80;;;;;;4768208;30;20052;-76
2021/04/05 04:01:58;;;;;;;7.10;5.22;;;0.00;85.90;;;;;;4775272;30;20058;-76
2021/04/05 04:09:38;;;;;;;6.07;3.42;;;-0.30;87.20;;;;;;4751787;30;20048;-77
2021/04/05 04:12:09;;;;;;;4.82;3.33;;;-0.40;87.90;;;;;;4767984;30;20055;-77
2021/04/05 04:14:39;;;;;;;5.90;5.40;;;-0.50;88.20;;;;;;4767826;30;20531;-76
2021/04/05 04:17:09;;;;;;;9.73;4.53;;;-0.50;88.40;;;;;;4777879;30;20063;-76
2021/04/05 04:19:38;;;;;;;6.10;4.18;;;-0.50;88.20;;;;;;4786471;30;20430;-77
2021/04/05 04:22:07;;;;;;;5.10;4.53;;;-0.50;88.30;;;;;;4785641;29;20050;-76
2021/04/05 04:24:35;;;;;;;9.35;4.63;;;-0.50;88.00;;;;;;4785729;30;20070;-76
2021/04/05 04:27:04;;;;;;;11.60;4.47;;;-0.40;87.70;;;;;;4785295;30;20494;-77
2021/04/05 04:29:32;;;;;;;8.35;5.57;;;-0.30;87.40;;;;;;4786235;30;20047;-77
2021/04/05 04:32:00;;;;;;;15.23;4.22;;;-0.20;86.90;;;;;;4786192;30;20080;-76
2021/04/05 04:34:27;;;;;;;13.90;5.15;;;-0.20;86.70;;;;;;4774501;30;20052;-76
2021/04/05 04:37:02;;;;;;;8.68;5.55;;;-0.20;86.60;;;;;;4767423;30;20064;-77
2021/04/05 04:39:30;;;;;;;13.88;5.53;;;-0.30;86.80;;;;;;4768104;30;20075;-76
2021/04/05 04:41:57;;;;;;;6.50;5.65;;;-0.30;86.90;;;;;;4750977;30;20051;-77
2021/04/05 04:44:25;;;;;;;6.78;6.20;;;-0.30;86.80;;;;;;4754251;30;20063;-77
2021/04/05 04:46:54;;;;;;;13.27;8.93;;;-0.30;86.50;;;;;;4767392;30;20055;-77
2021/04/05 04:49:22;;;;;;;23.42;12.30;;;-0.20;86.90;;;;;;4752013;30;20047;-76
2021/04/05 04:51:49;;;;;;;5.30;4.82;;;-0.20;86.60;;;;;;4767397;30;20047;-77
2021/04/05 04:54:17;;;;;;;4.75;4.35;;;-0.20;86.20;;;;;;4766133;30;20051;-76
2021/04/05 04:56:44;;;;;;;5.82;4.22;;;-0.10;86.30;;;;;;4765389;30;20064;-76
2021/04/05 04:59:22;;;;;;;9.25;3.85;;;-0.20;86.70;;;;;;4767319;30;20059;-77
2021/04/05 05:01:49;;;;;;;10.55;7.47;;;-0.20;86.70;;;;;;4767127;30;20048;-76
2021/04/05 05:04:31;;;;;;;8.52;5.05;;;-0.20;86.70;;;;;;4767186;30;20083;-77
2021/04/05 05:07:00;;;;;;;7.82;5.95;;;-0.20;86.60;;;;;;4783937;30;20051;-77
2021/04/05 05:09:29;;;;;;;10.38;3.13;;;0.00;86.30;;;;;;4785185;29;20114;-77
2021/04/05 05:11:56;;;;;;;5.75;3.83;;;0.00;85.60;;;;;;4785001;30;20624;-77
2021/04/05 05:14:24;;;;;;;4.65;4.05;;;0.10;85.40;;;;;;4784779;30;20047;-77
2021/04/05 05:16:53;;;;;;;10.85;6.60;;;0.30;85.10;;;;;;4784254;30;20569;-76
2021/04/05 05:19:25;;;;;;;7.55;4.57;;;0.30;84.70;;;;;;4766512;30;20406;-77
2021/04/05 05:21:56;;;;;;;6.93;5.18;;;0.30;84.50;;;;;;4766734;30;20048;-77
2021/04/05 05:24:28;;;;;;;14.20;6.70;;;0.30;84.20;;;;;;4767625;30;20059;-77
2021/04/05 05:26:56;;;;;;;;;;;0.50;83.90;;;;;;4766724;30;20060;-76
2021/04/05 05:29:27;;;;;;;6.07;3.60;;;0.60;84.20;;;;;;4766938;30;19943;-77
2021/04/05 05:31:55;;;;;;;4.85;4.00;;;0.80;83.00;;;;;;4767301;30;20066;-77
2021/04/05 05:34:24;;;;;;;6.20;4.53;;;0.80;82.90;;;;;;4768392;30;20055;-77
2021/04/05 05:36:51;;;;;;;5.07;3.97;;;0.90;82.70;;;;;;4783440;29;20067;-77
2021/04/05 05:39:20;;;;;;;8.38;6.65;;;1.00;82.90;;;;;;4785181;30;20059;-77
2021/04/05 05:42:06;;;;;;;15.68;7.25;;;1.10;82.70;;;;;;4763698;30;20052;-76
2021/04/05 05:44:42;;;;;;;18.25;12.75;;;1.20;82.80;;;;;;4750861;30;20052;-77
2021/04/05 05:47:18;;;;;;;10.77;5.60;;;1.30;82.60;;;;;;4767122;30;20044;-77
2021/04/05 05:49:49;;;;;;;43.00;18.85;;;1.40;81.70;;;;;;4767031;30;20040;-77
2021/04/05 05:52:56;;;;;;;85.45;39.72;;;1.60;82.10;;;;;;4767235;30;20070;-76
2021/04/05 05:55:53;;;;;;;9.15;5.97;;;1.80;81.70;;;;;;4749363;30;20402;-77
2021/04/05 05:58:44;;;;;;;21.35;10.15;;;2.00;80.80;;;;;;4733598;30;20652;-76
2021/04/05 06:01:30;;;;;;;3.28;3.05;;;2.30;79.60;;;;;;4767314;30;20064;-77
2021/04/05 06:04:26;;;;;;;6.57;3.85;;;2.60;76.50;;;;;;4767707;30;20060;-77
2021/04/05 06:07:00;;;;;;;14.60;7.18;;;3.00;75.70;;;;;;4766648;30;20103;-77
2021/04/05 06:10:01;;;;;;;4.57;3.97;;;3.30;75.90;;;;;;4766735;30;20054;-77
2021/04/05 06:12:48;;;;;;;21.15;11.35;;;3.70;72.60;;;;;;4767745;30;20063;-77
2021/04/05 06:15:27;;;;;;;5.85;3.03;;;3.90;73.70;;;;;;4764968;30;20059;-77
2021/04/05 06:18:02;;;;;;;10.90;6.95;;;3.90;73.60;;;;;;4767318;30;20521;-77
2021/04/05 06:21:09;;;;;;;11.90;5.70;;;4.00;73.30;;;;;;4767473;30;20067;-77
2021/04/05 06:23:45;;;;;;;9.02;6.50;;;3.90;74.70;;;;;;4725846;30;20063;-77
2021/04/05 06:26:31;;;;;;;22.58;14.88;;;4.10;73.70;;;;;;4781426;30;20047;-74
2021/04/05 06:29:23;;;;;;;51.03;23.55;;;3.90;76.20;;;;;;4784868;29;20058;-74
2021/04/05 06:31:51;;;;;;;20.75;10.88;;;4.00;76.90;;;;;;4769417;30;20074;-74
2021/04/05 06:34:19;;;;;;;63.78;35.85;;;4.40;75.90;;;;;;4777205;29;20057;-74
2021/04/05 06:37:30;;;;;;;7.03;5.53;;;5.00;73.50;;;;;;4785252;30;20063;-74
2021/04/05 06:40:04;;;;;;;12.73;9.38;;;5.80;68.50;;;;;;4758371;30;20055;-74
2021/04/05 06:42:53;;;;;;;30.60;16.73;;;6.70;65.90;;;;;;4787731;29;20050;-74
2021/04/05 06:45:29;;;;;;;36.13;17.83;;;7.40;64.40;;;;;;4787247;29;20051;-74
2021/04/05 06:48:27;;;;;;;29.52;14.65;;;7.90;60.10;;;;;;4787843;30;20067;-74
2021/04/05 06:51:29;;;;;;;13.85;4.85;;;8.20;60.50;;;;;;4787141;30;20044;-74
2021/04/05 06:54:34;;;;;;;4.03;3.35;;;8.40;57.50;;;;;;4786794;29;20050;-74
2021/04/05 06:57:14;;;;;;;3.95;2.90;;;8.80;58.30;;;;;;4786584;30;20055;-73
2021/04/05 06:59:57;;;;;;;4.28;3.90;;;9.30;57.80;;;;;;4771411;30;20522;-74
2021/04/05 07:13:06;;;;;;;;;;;;;;;;;;;;;
2021/04/05 07:17:01;;;;;;;3.63;3.03;;;10.20;51.70;;;;;;4649290;30;20038;-73
2021/04/05 07:40:48;;;;;;;3.80;2.40;;;11.40;45.50;;;;;;4575738;31;20052;-73
2021/04/05 07:49:26;;;;;;;3.67;2.40;;;12.30;46.00;;;;;;4577269;31;20068;-73
2021/04/05 07:59:51;;;;;;;6.07;2.50;;;11.50;43.00;;;;;;4670232;30;20042;-73
2021/04/05 08:14:55;;;;;;;5.15;2.50;;;11.40;42.50;;;;;;4750844;30;20047;-81
2021/04/05 08:18:44;;;;;;;3.53;3.05;;;11.50;45.80;;;;;;4754067;30;20088;-74
2021/04/05 08:21:17;;;;;;;3.50;2.88;;;11.90;43.50;;;;;;4766136;30;20047;-73
2021/04/05 08:23:57;;;;;;;5.03;2.35;;;12.30;42.20;;;;;;4778296;30;20494;-73
2021/04/05 08:26:46;;;;;;;5.40;2.97;;;12.40;39.50;;;;;;4784015;29;20066;-73
2021/04/05 08:29:59;;;;;;;3.20;2.90;;;12.50;42.20;;;;;;4784840;30;20051;-72
2021/04/05 08:32:42;;;;;;;4.95;4.15;;;12.70;37.90;;;;;;4771551;30;20062;-75
2021/04/05 08:35:20;;;;;;;3.15;2.90;;;12.20;41.30;;;;;;4767106;30;20048;-73
2021/04/05 08:37:58;;;;;;;3.13;2.67;;;12.60;40.80;;;;;;4781927;29;20044;-74
2021/04/05 08:40:38;;;;;;;3.50;3.20;;;13.00;38.00;;;;;;4786190;29;20062;-73
2021/04/05 08:43:25;;;;;;;14.25;3.80;;;14.10;38.80;;;;;;4776550;29;20058;-73
2021/04/05 08:46:01;;;;;;;7.30;3.22;;;13.30;40.10;;;;;;4784506;29;20511;-74
2021/04/05 08:48:37;;;;;;;5.07;3.45;;;13.10;40.00;;;;;;4783203;29;20067;-74
2021/04/05 08:51:30;;;;;;;2.90;2.70;;;12.90;40.70;;;;;;4786546;29;20059;-74
2021/04/05 08:54:00;;;;;;;3.83;2.83;;;13.10;38.90;;;;;;4743844;29;20054;-74
2021/04/05 08:56:49;;;;;;;5.53;2.72;;;13.50;37.50;;;;;;4761707;29;20062;-75
2021/04/05 08:59:58;;;;;;;15.43;3.20;;;13.80;37.90;;;;;;4782740;29;20054;-74
2021/04/05 09:02:59;;;;;;;6.63;3.85;;;12.70;40.40;;;;;;4769967;30;20057;-82
2021/04/05 09:05:44;;;;;;;1.90;1.80;;;12.00;40.30;;;;;;4782976;29;20043;-81
2021/04/05 09:08:22;;;;;;;3.50;2.97;;;12.10;40.60;;;;;;4771235;29;20054;-83
2021/04/05 09:11:03;;;;;;;5.97;2.28;;;12.20;41.70;;;;;;4791003;29;20062;-83
2021/04/05 09:13:50;;;;;;;3.55;2.60;;;12.10;41.10;;;;;;4793207;29;20061;-84
2021/04/05 09:16:46;;;;;;;5.38;2.05;;;12.40;40.50;;;;;;4760046;29;20055;-83
2021/04/05 09:19:30;;;;;;;;;;;12.70;40.20;;;;;;4785107;29;20055;-77
2021/04/05 09:22:25;;;;;;;6.78;3.00;;;12.50;41.80;;;;;;4783718;29;19937;-80
2021/04/05 09:25:30;;;;;;;5.30;1.95;;;12.70;41.80;;;;;;4790226;29;20359;-77
2021/04/05 09:28:12;;;;;;;3.15;2.85;;;12.70;39.50;;;;;;4770800;30;20051;-80
2021/04/05 09:31:27;;;;;;;4.75;2.50;;;12.60;41.20;;;;;;4796051;29;20047;-77
2021/04/05 09:34:19;;;;;;;5.32;3.30;;;12.60;39.20;;;;;;4802144;29;20045;-79
2021/04/05 09:36:59;;;;;;;3.33;2.10;;;12.80;40.10;;;;;;4788287;29;20075;-76
2021/04/05 09:39:41;;;;;;;4.65;3.33;;;13.00;41.50;;;;;;4785781;29;20063;-74
2021/04/05 09:42:36;;;;;;;3.78;2.85;;;12.90;41.60;;;;;;4785518;29;20043;-77
2021/04/05 09:45:21;;;;;;;3.78;2.60;;;12.80;42.80;;;;;;4800590;29;20063;-77
2021/04/05 09:48:37;;;;;;;4.50;2.25;;;13.10;40.50;;;;;;4784709;30;20410;-77
2021/04/05 09:51:53;;;;;;;1.73;1.60;;;12.90;39.70;;;;;;4792229;29;20050;-77
2021/04/05 10:04:39;;;;;;;4.43;2.67;;;13.40;40.40;;;;;;4754955;30;20987;-79
2021/04/05 10:07:11;;;;;;;5.95;3.78;;;13.50;42.10;;;;;;4784045;29;20051;-78
2021/04/05 10:09:42;;;;;;;1.80;1.50;;;13.70;38.30;;;;;;4801470;29;20050;-78
2021/04/05 10:12:12;;;;;;;5.45;1.83;;;13.70;39.30;;;;;;4803975;29;20062;-79
2021/04/05 10:18:15;;;;;;;4.05;2.20;;;13.30;37.50;;;;;;4805054;29;20058;-77
2021/04/05 10:20:47;;;;;;;4.38;2.95;;;13.10;38.00;;;;;;4806358;29;20062;-79
2021/04/05 10:23:24;;;;;;;3.25;2.08;;;13.10;38.90;;;;;;4806127;29;20055;-80
2021/04/05 10:26:02;;;;;;;4.25;2.17;;;13.00;36.90;;;;;;4807523;29;20489;-78
2021/04/05 10:28:35;;;;;;;6.03;2.00;;;13.20;41.20;;;;;;4813246;29;20051;-80
2021/04/05 10:31:14;;;;;;;5.47;2.90;;;13.50;37.40;;;;;;4806449;29;20047;-79
2021/04/05 10:33:46;;;;;;;3.75;2.08;;;13.30;38.20;;;;;;4805622;29;20420;-79
2021/04/05 10:36:21;;;;;;;1.65;1.55;;;13.30;40.70;;;;;;4818530;29;20062;-77
2021/04/05 10:38:52;;;;;;;5.03;2.40;;;13.60;39.10;;;;;;4823610;29;20047;-76
2021/04/05 10:41:23;;;;;;;5.80;2.25;;;13.40;38.40;;;;;;4814752;29;20612;-78
2021/04/05 10:43:55;;;;;;;2.58;2.03;;;13.50;38.80;;;;;;4820038;29;20065;-80
2021/04/05 10:46:30;;;;;;;1.40;1.00;;;13.50;41.90;;;;;;4814490;29;20267;-80
2021/04/05 10:48:59;;;;;;;4.78;2.42;;;13.70;38.80;;;;;;4813973;29;20058;-81
2021/04/05 10:51:33;;;;;;;4.63;2.45;;;13.80;39.80;;;;;;4805764;29;20077;-79
2021/04/05 10:54:22;;;;;;;1.63;1.52;;;13.60;35.90;;;;;;4804763;29;20039;-79
2021/04/05 10:57:03;;;;;;;1.38;1.27;;;13.90;40.70;;;;;;4819760;29;20058;-78
2021/04/05 10:59:52;;;;;;;9.27;2.08;;;14.40;39.30;;;;;;4781210;29;20039;-77
2021/04/05 11:02:37;;;;;;;4.30;1.27;;;14.40;37.70;;;;;;4788751;29;20047;-77
2021/04/05 11:05:09;;;;;;;2.33;1.95;;;14.40;40.60;;;;;;4804091;29;20053;-75
2021/04/05 11:07:39;;;;;;;2.08;1.73;;;14.10;35.80;;;;;;4805440;29;20390;-77
2021/04/05 11:10:18;;;;;;;3.55;3.25;;;13.70;37.60;;;;;;4769649;30;20098;-74
2021/04/05 11:12:52;;;;;;;1.40;1.30;;;13.50;39.40;;;;;;4786426;30;20063;-73
2021/04/05 11:15:24;;;;;;;11.10;2.10;;;13.60;39.60;;;;;;4787833;29;20051;-75
2021/04/05 11:33:57;;;;;;;1.63;1.52;;;13.00;36.40;;;;;;4726939;30;20360;-75
2021/04/05 11:36:51;;;;;;;2.83;1.90;;;13.10;36.40;;;;;;4795479;29;20063;-73
2021/04/05 11:40:54;;;;;;;3.72;2.10;;;13.20;37.30;;;;;;4779961;29;20408;-80
2021/04/05 11:48:09;;;;;;;1.73;1.42;;;13.10;38.80;;;;;;4678914;30;20045;-82
2021/04/05 11:50:46;;;;;;;5.90;1.95;;;13.50;40.70;;;;;;4788153;29;20386;-80
2021/04/05 11:53:34;;;;;;;3.72;1.92;;;13.60;37.70;;;;;;4801552;29;20042;-78
2021/04/05 11:56:50;;;;;;;3.92;1.95;;;13.70;36.20;;;;;;4795477;29;20054;-79
2021/04/05 11:59:54;;;;;;;2.67;2.47;;;13.60;37.70;;;;;;4761122;30;20052;-86
2021/04/05 12:03:13;;;;;;;3.22;2.47;;;13.90;35.90;;;;;;4733277;30;20057;-85
2021/04/05 12:06:02;;;;;;;2.67;2.33;;;13.70;35.00;;;;;;4743435;30;20495;-84
2021/04/05 12:09:01;;;;;;;1.90;1.42;;;13.80;36.60;;;;;;4756407;30;20067;-83
2021/04/05 12:11:55;;;;;;;10.15;3.90;;;14.10;34.60;;;;;;4777188;29;20130;-85
2021/04/05 12:14:26;;;;;;;2.30;1.60;;;13.70;33.90;;;;;;4814127;29;20517;-84
2021/04/05 12:17:04;;;;;;;3.40;2.20;;;13.80;36.70;;;;;;4798764;29;20054;-87
2021/04/05 12:19:52;;;;;;;6.90;3.33;;;13.80;35.20;;;;;;4801603;29;20047;-86
2021/04/05 12:22:39;;;;;;;3.58;3.28;;;13.70;34.70;;;;;;4803914;29;20043;-85
2021/04/05 12:25:08;;;;;;;4.78;2.78;;;13.60;32.70;;;;;;4773790;29;20061;-87
2021/04/05 12:27:39;;;;;;;6.00;3.03;;;13.50;32.70;;;;;;4804831;29;20058;-87
2021/04/05 12:30:24;;;;;;;5.97;2.28;;;13.50;33.80;;;;;;4806232;29;20524;-88
2021/04/05 12:32:57;;;;;;;2.95;2.45;;;13.60;32.50;;;;;;4805759;29;20054;-87
2021/04/05 12:35:26;;;;;;;2.42;1.38;;;13.70;35.20;;;;;;4805335;29;20058;-82
2021/04/05 12:38:32;;;;;;;6.05;3.55;;;13.90;39.10;;;;;;4805459;29;20047;-88
2021/04/05 12:41:04;;;;;;;6.95;1.77;;;13.80;33.10;;;;;;4806241;29;20055;-84
2021/04/05 12:43:35;;;;;;;2.53;1.88;;;13.60;32.70;;;;;;4816733;29;20058;-85
2021/04/05 12:46:07;;;;;;;6.20;2.00;;;13.80;33.40;;;;;;4822548;29;20762;-84
2021/04/05 12:48:45;;;;;;;2.60;1.95;;;13.80;31.50;;;;;;4824475;29;20061;-86
2021/04/05 12:51:25;;;;;;;4.63;2.73;;;13.70;33.30;;;;;;4822844;29;20050;-86
2021/04/05 12:53:59;;;;;;;2.03;1.83;;;13.80;32.40;;;;;;4822775;29;20055;-85
2021/04/05 12:56:37;;;;;;;5.07;2.70;;;13.90;35.20;;;;;;4800998;29;20055;-87
2021/04/05 12:59:04;;;;;;;4.47;2.10;;;13.90;32.20;;;;;;4804764;29;20058;-84
2021/04/05 13:01:50;;;;;;;3.90;2.17;;;14.00;33.60;;;;;;4810096;29;20050;-85
2021/04/05 13:04:23;;;;;;;2.78;1.52;;;14.40;33.60;;;;;;4806190;29;20399;-83
2021/04/05 13:06:59;;;;;;;2.58;2.15;;;14.40;34.80;;;;;;4811047;29;20079;-87
2021/04/05 13:09:39;;;;;;;7.10;1.83;;;14.30;31.60;;;;;;4792582;29;20775;-87
2021/04/05 13:12:17;;;;;;;2.50;1.85;;;14.20;35.30;;;;;;4804028;29;20378;-87
2021/04/05 13:14:55;;;;;;;3.45;1.63;;;14.20;30.50;;;;;;4792912;29;20046;-83
2021/04/05 13:28:05;;;;;;;2.67;2.05;;;14.60;29.40;;;;;;4714654;30;20507;-85
2021/04/05 13:31:05;;;;;;;5.70;1.88;;;14.40;30.60;;;;;;4646013;30;20511;-85
2021/04/05 13:33:36;;;;;;;7.88;1.92;;;14.10;28.90;;;;;;4683067;30;20042;-87
2021/04/05 13:36:15;;;;;;;27.65;3.92;;;14.00;29.20;;;;;;4655422;30;20672;-86
2021/04/05 13:38:58;;;;;;;5.10;2.70;;;13.80;29.50;;;;;;4712003;30;20056;-87
2021/04/05 13:41:46;;;;;;;10.23;2.65;;;13.80;31.00;;;;;;4720483;30;20052;-87
2021/04/05 13:45:18;;;;;;;2.28;1.20;;;13.50;31.10;;;;;;4720576;30;20071;-88
2021/04/05 13:52:27;;;;;;;4.28;1.73;;;13.50;32.30;;;;;;4799182;29;20039;-85
2021/04/05 13:55:00;;;;;;;2.42;2.08;;;13.50;31.80;;;;;;4777617;29;20039;-85
2021/04/05 13:57:37;;;;;;;21.35;3.15;;;13.50;31.50;;;;;;4785233;29;20053;-85
2021/04/05 14:00:12;;;;;;;3.90;1.45;;;13.50;33.80;;;;;;4829487;29;20057;-85
2021/04/05 14:02:45;;;;;;;2.35;2.15;;;13.50;30.70;;;;;;4813095;29;20041;-85
2021/04/05 14:05:17;;;;;;;4.53;2.17;;;13.30;30.20;;;;;;4829061;29;20058;-85
2021/04/05 14:07:48;;;;;;;3.30;1.40;;;13.20;30.80;;;;;;4814482;29;20050;-89
2021/04/05 14:10:26;;;;;;;4.43;1.73;;;13.20;32.30;;;;;;4813763;29;20042;-90
2021/04/05 14:13:01;;;;;;;4.95;2.35;;;13.10;33.40;;;;;;4829023;29;20050;-86
2021/04/05 14:15:29;;;;;;;3.42;1.77;;;13.10;32.90;;;;;;4841385;29;20062;-85
2021/04/05 14:18:25;;;;;;;2.20;1.48;;;13.00;36.00;;;;;;4826906;29;20045;-84
2021/04/05 14:20:53;;;;;;;4.75;1.90;;;13.00;36.70;;;;;;4826455;29;20051;-86
2021/04/05 14:27:48;;;;;;;7.10;2.50;;;13.00;35.20;;;;;;4793005;29;20054;-88
2021/04/05 14:30:18;;;;;;;2.22;1.67;;;12.80;35.10;;;;;;4828459;29;20707;-85
2021/04/05 14:32:56;;;;;;;4.63;3.00;;;12.70;37.30;;;;;;4829249;29;20057;-86
2021/04/05 14:35:36;;;;;;;2.30;2.10;;;12.70;35.70;;;;;;4812929;29;20049;-85
2021/04/05 14:38:12;;;;;;;5.68;3.47;;;12.70;36.10;;;;;;4813280;29;20412;-88
2021/04/05 14:40:44;;;;;;;2.88;1.80;;;12.50;36.40;;;;;;4798860;29;20046;-84
2021/04/05 14:43:14;;;;;;;;;;;12.40;38.00;;;;;;4819788;29;20062;-88
2021/04/05 14:45:45;;;;;;;3.20;1.98;;;12.30;37.50;;;;;;4810221;29;19928;-89
2021/04/05 14:48:14;;;;;;;3.75;2.05;;;12.40;38.70;;;;;;4810050;29;20050;-88
2021/04/05 14:50:50;;;;;;;3.15;2.45;;;12.40;40.20;;;;;;4795547;29;20477;-84
2021/04/05 14:53:34;;;;;;;9.15;3.35;;;12.40;38.60;;;;;;4794893;29;20053;-85
2021/04/05 14:56:05;;;;;;;3.22;2.47;;;12.20;38.90;;;;;;4800339;29;20062;-86
2021/04/05 14:58:37;;;;;;;7.43;4.53;;;12.20;39.30;;;;;;4762169;29;20131;-86
2021/04/05 15:01:11;;;;;;;7.03;3.42;;;12.00;39.10;;;;;;4792530;29;20065;-89
2021/04/05 15:03:42;;;;;;;4.07;2.65;;;11.90;40.30;;;;;;4779720;29;20065;-85
2021/04/05 15:06:11;;;;;;;1.83;1.67;;;12.00;40.90;;;;;;4770644;29;20072;-79
2021/04/05 15:09:01;;;;;;;9.38;4.65;;;11.90;42.00;;;;;;4815254;29;20065;-79
2021/04/05 15:11:51;;;;;;;7.97;3.67;;;11.80;40.80;;;;;;4784449;29;20389;-79
2021/04/05 15:14:27;;;;;;;4.75;1.90;;;11.70;42.30;;;;;;4789820;29;20050;-78
2021/04/05 15:16:59;;;;;;;3.33;3.00;;;11.70;41.90;;;;;;4814239;29;20050;-78
2021/04/05 15:19:28;;;;;;;11.15;2.38;;;11.60;41.80;;;;;;4814483;29;20050;-78
2021/04/05 15:22:00;;;;;;;5.93;3.67;;;11.60;42.70;;;;;;4823398;29;20038;-78
2021/04/05 15:24:28;;;;;;;;;;;11.60;41.50;;;;;;4823755;29;20050;-78
2021/04/05 15:27:06;;;;;;;5.20;3.88;;;11.60;42.80;;;;;;4821977;29;20381;-77
2021/04/05 15:29:35;;;;;;;5.70;3.05;;;11.50;41.50;;;;;;4823533;29;20050;-77
2021/04/05 15:32:15;;;;;;;5.32;3.60;;;11.50;42.30;;;;;;4822179;29;20066;-76
2021/04/05 15:34:46;;;;;;;9.33;3.83;;;11.50;43.80;;;;;;4805694;29;20051;-83
2021/04/05 15:37:15;;;;;;;16.98;7.10;;;11.50;43.00;;;;;;4810863;29;20046;-77
2021/04/05 15:39:51;;;;;;;7.87;4.47;;;11.40;42.00;;;;;;4820515;29;20050;-76
2021/04/05 15:42:23;;;;;;;14.20;4.20;;;11.40;42.90;;;;;;4821690;29;20487;-77
2021/04/05 15:44:53;;;;;;;7.03;3.20;;;11.40;43.10;;;;;;4818657;29;20085;-79
2021/04/05 15:47:28;;;;;;;13.32;3.58;;;11.30;43.00;;;;;;4804241;29;20058;-78
2021/04/05 15:50:24;;;;;;;5.90;3.90;;;11.30;43.30;;;;;;4807721;29;20050;-76
2021/04/05 15:53:14;;;;;;;5.32;3.30;;;11.30;42.50;;;;;;4816098;29;20063;-77
2021/04/05 15:55:47;;;;;;;7.32;4.07;;;11.20;43.20;;;;;;4789563;29;20069;-78
2021/04/05 15:58:37;;;;;;;5.05;3.45;;;11.20;42.70;;;;;;4802260;29;20054;-79
2021/04/05 16:01:34;;;;;;;5.85;2.60;;;11.10;42.70;;;;;;4814356;29;20075;-76
2021/04/05 16:04:56;;;;;;;5.72;2.55;;;11.10;43.80;;;;;;4788365;29;20062;-77
2021/04/05 16:08:14;;;;;;;7.38;3.42;;;11.10;43.00;;;;;;4785864;29;20517;-78
2021/04/05 16:11:14;;;;;;;4.40;3.83;;;11.10;42.40;;;;;;4785051;29;20062;-78
2021/04/05 16:14:27;;;;;;;11.00;4.18;;;11.00;42.70;;;;;;4795902;29;20042;-79
2021/04/05 16:17:04;;;;;;;5.72;2.80;;;11.00;43.50;;;;;;4802398;29;20066;-78